Lord Nelson — GHJV — position and weather

sailwx.info

Track history (hours):
 
Tides and Currents Weather Stations Pressure Air Temp Water Temp Dewpoint Dewpoint Depression Visibility Wind Speed Wind Dir Waves Ship Positions

Lord Nelson (United Kingdom)

Ship's website: http://www.jst.org.uk/

Last reported at 2016-Aug-31 10:00 UTC. Time now 2016-Aug-31 16:07 UTC.
Position N 56°30' E 005°00'.

Length 54.7 m; beam 9 m; draft 4.1 m.

Type: Sailing vessel. MMSI: 232003690.

Wind from 180 at 21 knots

Waves 1.5 meters (5 feet), 5 second period

Barometer 1017.4 mb
Air temperature 18.0 ° C
Visibility: greater than 10.8 NM
Dewpoint 15.3 ° C
Water temperature 18.7 ° C

Date/timePositionNaut miles runAvg speedWind from/ knotsBaromVisibWave heightAir tempDewpointWater temp
2016-Aug-31 10:00N 56°30' E 005°00'94 7.2 180 / 211017.410.8 1.518.015.318.7
2016-Aug-30 21:00N 55°54' E 002°24'47 4.7 180 / 131020.910.8 1.517.114.918.6
2016-Aug-30 11:00N 55°36' E 001°06'59 5.2 130 / 121023.110.8 1.018.112.818.6
2016-Aug-29 23:33N 55°20' W 000°34'4 4.3
2016-Aug-29 22:32N 55°19' W 000°42'6 4.5
2016-Aug-29 21:18N 55°17' W 000°51'516.5
2016-Aug-29 21:00N 55°12' W 000°48'613.0 240 / 181021.710.8 0.516.311.717.4
2016-Aug-29 20:33N 55°15' W 000°56'4 4.3
2016-Aug-29 19:33N 55°13' W 001°03'5 5.2
2016-Aug-29 18:33N 55°11' W 001°11'4 4.4
2016-Aug-29 17:34N 55°08' W 001°16'3 3.3
2016-Aug-29 16:33N 55°07' W 001°22'1 1.1
2016-Aug-29 15:34N 55°06' W 001°21'3 3.3
2016-Aug-29 14:33N 55°03' W 001°21'2 2.2
2016-Aug-29 13:33N 55°04' W 001°25'5 4.8
2016-Aug-29 12:33N 55°08' W 001°30'0 0.0
2016-Aug-29 11:33N 55°08' W 001°30'0 0.0
2016-Aug-29 10:33N 55°08' W 001°30'0 0.0
2016-Aug-29 09:32N 55°08' W 001°30'0 0.0
2016-Aug-29 08:32N 55°08' W 001°30'0 0.0
2016-Aug-29 07:32N 55°08' W 001°30'0 0.0
2016-Aug-29 06:32N 55°08' W 001°30'0 0.0
2016-Aug-29 05:32N 55°08' W 001°30'0 0.0
2016-Aug-29 04:32N 55°08' W 001°30'0 0.0
2016-Aug-29 03:32N 55°08' W 001°30'0 0.0
2016-Aug-29 02:32N 55°08' W 001°30'0 0.0
2016-Aug-29 01:31N 55°08' W 001°30'0 0.0
2016-Aug-29 00:31N 55°08' W 001°30'0 0.0
2016-Aug-28 23:31N 55°08' W 001°30'0 0.0
2016-Aug-28 22:31N 55°08' W 001°30'0 0.0
2016-Aug-28 21:31N 55°08' W 001°30'0 0.0
2016-Aug-28 20:31N 55°08' W 001°30'0 0.0
2016-Aug-28 19:31N 55°08' W 001°30'0 0.0
2016-Aug-28 18:31N 55°08' W 001°30'0 0.0
2016-Aug-28 17:31N 55°08' W 001°30'0 0.0
2016-Aug-28 16:31N 55°08' W 001°30'0 0.0
2016-Aug-28 15:31N 55°08' W 001°30'0 0.0
2016-Aug-28 14:31N 55°08' W 001°30'0 0.0
2016-Aug-27 10:28N 55°08' W 001°30'0 0.0
2016-Aug-27 09:31N 55°08' W 001°30'0 0.0
2016-Aug-27 08:31N 55°08' W 001°30'0 0.0
2016-Aug-27 07:31N 55°08' W 001°30'0 0.0
2016-Aug-27 06:31N 55°08' W 001°30'0 0.0
2016-Aug-27 04:31N 55°08' W 001°30'0 0.0
2016-Aug-27 03:31N 55°08' W 001°30'0 0.0
2016-Aug-27 02:31N 55°08' W 001°30'0 0.0
2016-Aug-27 01:31N 55°08' W 001°30'0 0.0
2016-Aug-27 00:31N 55°08' W 001°30'0 0.0
2016-Aug-26 23:31N 55°08' W 001°30'0 0.0
2016-Aug-26 22:31N 55°08' W 001°30'0 0.0
2016-Aug-26 21:31N 55°08' W 001°30'0 0.0
2016-Aug-26 20:31N 55°08' W 001°30'0 0.0
2016-Aug-26 19:31N 55°08' W 001°30'0 0.0
2016-Aug-26 18:31N 55°08' W 001°30'0 0.0
2016-Aug-26 17:31N 55°08' W 001°30'0 0.0
2016-Aug-26 16:31N 55°08' W 001°30'0 0.0
2016-Aug-26 15:31N 55°08' W 001°30'0 0.0
2016-Aug-26 14:31N 55°08' W 001°30'0 0.0
2016-Aug-26 13:31N 55°08' W 001°30'0 0.0
2016-Aug-26 12:31N 55°08' W 001°30'0 0.0
2016-Aug-26 11:31N 55°08' W 001°30'0 0.0
2016-Aug-26 10:31N 55°08' W 001°30'0 0.0
2016-Aug-26 09:31N 55°08' W 001°30'0 0.0
2016-Aug-26 08:33N 55°08' W 001°30'2 2.0
2016-Aug-26 07:34N 55°07' W 001°27'4 3.9
2016-Aug-26 06:34N 55°10' W 001°22'4 1.8
2016-Aug-26 04:33N 55°14' W 001°20'5 5.0
2016-Aug-26 03:34N 55°12' W 001°12'5 5.4
2016-Aug-26 02:33N 55°09' W 001°04'610.9
2016-Aug-26 02:00N 55°06' W 000°54'1 1.7 110 / 61012.1 2.2 15.015.017.2
2016-Aug-26 01:34N 55°07' W 000°55'5 5.4
2016-Aug-26 00:33N 55°04' W 000°46'6 5.0
2016-Aug-25 23:22N 55°02' W 000°36'4 4.6
2016-Aug-25 22:33N 55°01' W 000°30'10 6.4
2016-Aug-25 21:00N 54°54' W 000°18'11 4.4 130 / 31014.0 2.2 15.915.217.6
2016-Aug-25 18:27N 54°54' E 000°02'1 1.9
2016-Aug-25 18:00N 54°54' E 000°00'12 6.0 060 / 71014.6 5.4 16.215.918.2
2016-Aug-25 16:00N 54°48' E 000°18'3 5.6 060 / 61016.1 2.2 16.114.418.6
2016-Aug-25 15:30N 54°48' E 000°23'6 3.0
2016-Aug-25 13:28N 54°43' E 000°29'33 4.4
2016-Aug-25 06:00N 54°12' E 000°48'6 6.0 040 / 91018.5 2.2 15.814.917.3
2016-Aug-25 05:00N 54°06' E 000°48'10 5.8 030 / 71019.0 5.4 15.915.417.4
2016-Aug-25 03:14N 53°56' E 000°53'5 7.1
2016-Aug-25 02:29N 53°51' E 000°54'918.5
2016-Aug-25 02:00N 53°42' E 000°54'2 1.8 030 / 151017.5 2.2 0.516.015.117.3
2016-Aug-25 01:10N 53°42' E 000°57'11 6.0
2016-Aug-24 23:24N 53°32' E 000°60'5 5.4
2016-Aug-24 22:29N 53°27' E 001°04'9 6.3
2016-Aug-24 21:00N 53°18' E 001°06'15 6.0 010 / 141020.210.8 1.016.515.518.1
2016-Aug-24 18:34N 53°11' E 001°27'8 8.2
2016-Aug-24 17:33N 53°09' E 001°41'8 7.7
2016-Aug-24 16:31N 53°06' E 001°53'7 7.2
2016-Aug-24 15:34N 53°01' E 002°00'5 4.6
2016-Aug-24 14:33N 52°57' E 002°05'1 0.9
2016-Aug-24 13:33N 52°58' E 002°06'1 1.2
2016-Aug-24 12:33N 52°59' E 002°06'1 1.1
2016-Aug-24 11:33N 53°00' E 002°06'0 0.3
2016-Aug-24 10:34N 53°00' E 002°06'1 1.4
2016-Aug-24 09:34N 52°59' E 002°08'5 9.6
2016-Aug-24 09:00N 52°54' E 002°06'511.4 150 / 131019.610.8 0.520.317.620.1
2016-Aug-24 08:33N 52°57' E 002°12'5 5.1
2016-Aug-24 07:34N 52°52' E 002°16'6 6.1
2016-Aug-24 06:33N 52°47' E 002°19'11 5.6
2016-Aug-24 04:34N 52°36' E 002°19'6 9.9
2016-Aug-24 04:00N 52°30' E 002°18'1 2.6 140 / 171019.0 5.4 19.517.419.4
2016-Aug-24 03:34N 52°31' E 002°17'4 3.8
2016-Aug-24 02:34N 52°27' E 002°15'3 3.0
2016-Aug-24 01:33N 52°24' E 002°14'4 3.4
2016-Aug-24 00:13N 52°20' E 002°12'3 4.5
2016-Aug-23 23:30N 52°18' E 002°08'5 4.9
2016-Aug-23 22:26N 52°14' E 002°01'5 5.3
2016-Aug-23 21:34N 52°10' E 001°57'7 6.6
2016-Aug-23 20:34N 52°04' E 001°54'7 6.7
2016-Aug-23 19:33N 51°58' E 001°50'8 8.3
2016-Aug-23 18:33N 51°50' E 001°47'6 6.1
2016-Aug-23 17:33N 51°51' E 001°38'9 8.7
2016-Aug-23 16:33N 51°46' E 001°27'8 8.1
2016-Aug-23 15:34N 51°40' E 001°17'8 7.2
2016-Aug-23 14:29N 51°34' E 001°09'5 5.0
2016-Aug-23 13:33N 51°32' E 001°02'5 4.7
2016-Aug-23 12:33N 51°30' E 000°56'5 4.5
2016-Aug-23 11:34N 51°29' E 000°48'6 5.7
2016-Aug-23 10:34N 51°30' E 000°40'0 0.2
2016-Aug-23 09:29N 51°30' E 000°39'0 0.0
2016-Aug-23 08:32N 51°30' E 000°39'0 0.0
2016-Aug-23 07:20N 51°30' E 000°39'0 0.0
2016-Aug-23 06:32N 51°30' E 000°39'0 0.0
2016-Aug-23 05:32N 51°30' E 000°39'0 0.0
2016-Aug-23 04:32N 51°30' E 000°39'0 0.0
2016-Aug-23 03:32N 51°30' E 000°39'0 0.0
2016-Aug-23 02:32N 51°30' E 000°39'0 0.0
2016-Aug-23 01:32N 51°30' E 000°39'0 0.0
2016-Aug-23 00:32N 51°30' E 000°39'0 0.0
2016-Aug-22 23:32N 51°30' E 000°39'0 0.1
2016-Aug-22 22:32N 51°30' E 000°39'0 0.0
2016-Aug-22 21:29N 51°30' E 000°39'0 0.0
2016-Aug-22 20:32N 51°30' E 000°39'0 0.0
2016-Aug-22 19:33N 51°30' E 000°39'9 8.8
2016-Aug-22 18:34N 51°27' E 000°26'9 9.0
2016-Aug-22 17:33N 51°29' E 000°12'7 7.4
2016-Aug-22 16:33N 51°30' E 000°00'  
Track history (hours):
 
Tides and Currents Weather Stations Pressure Air Temp Water Temp Dewpoint Dewpoint Depression Visibility Wind Speed Wind Dir Waves Ship Positions

Lord Nelson (United Kingdom)

Ship's website: http://www.jst.org.uk/

Last reported at 2016-Aug-31 10:00 UTC. Time now 2016-Aug-31 16:07 UTC.
Position N 56°30' E 005°00'.

Length 54.7 m; beam 9 m; draft 4.1 m.

Type: Sailing vessel. MMSI: 232003690.

Wind from 180 at 21 knots

Waves 1.5 meters (5 feet), 5 second period

Barometer 1017.4 mb
Air temperature 18.0 ° C
Visibility: greater than 10.8 NM
Dewpoint 15.3 ° C
Water temperature 18.7 ° C

Date/timePositionNaut miles runAvg speedWind from/ knotsBaromVisibWave heightAir tempDewpointWater temp
2016-Aug-31 10:00N 56°30' E 005°00'94 7.2 180 / 211017.410.8 1.518.015.318.7
2016-Aug-30 21:00N 55°54' E 002°24'47 4.7 180 / 131020.910.8 1.517.114.918.6
2016-Aug-30 11:00N 55°36' E 001°06'59 5.2 130 / 121023.110.8 1.018.112.818.6
2016-Aug-29 23:33N 55°20' W 000°34'4 4.3
2016-Aug-29 22:32N 55°19' W 000°42'6 4.5
2016-Aug-29 21:18N 55°17' W 000°51'516.5
2016-Aug-29 21:00N 55°12' W 000°48'613.0 240 / 181021.710.8 0.516.311.717.4
2016-Aug-29 20:33N 55°15' W 000°56'4 4.3
2016-Aug-29 19:33N 55°13' W 001°03'5 5.2
2016-Aug-29 18:33N 55°11' W 001°11'4 4.4
2016-Aug-29 17:34N 55°08' W 001°16'3 3.3
2016-Aug-29 16:33N 55°07' W 001°22'1 1.1
2016-Aug-29 15:34N 55°06' W 001°21'3 3.3
2016-Aug-29 14:33N 55°03' W 001°21'2 2.2
2016-Aug-29 13:33N 55°04' W 001°25'5 4.8
2016-Aug-29 12:33N 55°08' W 001°30'0 0.0
2016-Aug-29 11:33N 55°08' W 001°30'0 0.0
2016-Aug-29 10:33N 55°08' W 001°30'0 0.0
2016-Aug-29 09:32N 55°08' W 001°30'0 0.0
2016-Aug-29 08:32N 55°08' W 001°30'0 0.0
2016-Aug-29 07:32N 55°08' W 001°30'0 0.0
2016-Aug-29 06:32N 55°08' W 001°30'0 0.0
2016-Aug-29 05:32N 55°08' W 001°30'0 0.0
2016-Aug-29 04:32N 55°08' W 001°30'0 0.0
2016-Aug-29 03:32N 55°08' W 001°30'0 0.0
2016-Aug-29 02:32N 55°08' W 001°30'0 0.0
2016-Aug-29 01:31N 55°08' W 001°30'0 0.0
2016-Aug-29 00:31N 55°08' W 001°30'0 0.0
2016-Aug-28 23:31N 55°08' W 001°30'0 0.0
2016-Aug-28 22:31N 55°08' W 001°30'0 0.0
2016-Aug-28 21:31N 55°08' W 001°30'0 0.0
2016-Aug-28 20:31N 55°08' W 001°30'0 0.0
2016-Aug-28 19:31N 55°08' W 001°30'0 0.0
2016-Aug-28 18:31N 55°08' W 001°30'0 0.0
2016-Aug-28 17:31N 55°08' W 001°30'0 0.0
2016-Aug-28 16:31N 55°08' W 001°30'0 0.0
2016-Aug-28 15:31N 55°08' W 001°30'0 0.0
2016-Aug-28 14:31N 55°08' W 001°30'0 0.0
2016-Aug-27 10:28N 55°08' W 001°30'0 0.0
2016-Aug-27 09:31N 55°08' W 001°30'0 0.0
2016-Aug-27 08:31N 55°08' W 001°30'0 0.0
2016-Aug-27 07:31N 55°08' W 001°30'0 0.0
2016-Aug-27 06:31N 55°08' W 001°30'0 0.0
2016-Aug-27 04:31N 55°08' W 001°30'0 0.0
2016-Aug-27 03:31N 55°08' W 001°30'0 0.0
2016-Aug-27 02:31N 55°08' W 001°30'0 0.0
2016-Aug-27 01:31N 55°08' W 001°30'0 0.0
2016-Aug-27 00:31N 55°08' W 001°30'0 0.0
2016-Aug-26 23:31N 55°08' W 001°30'0 0.0
2016-Aug-26 22:31N 55°08' W 001°30'0 0.0
2016-Aug-26 21:31N 55°08' W 001°30'0 0.0
2016-Aug-26 20:31N 55°08' W 001°30'0 0.0
2016-Aug-26 19:31N 55°08' W 001°30'0 0.0
2016-Aug-26 18:31N 55°08' W 001°30'0 0.0
2016-Aug-26 17:31N 55°08' W 001°30'0 0.0
2016-Aug-26 16:31N 55°08' W 001°30'0 0.0
2016-Aug-26 15:31N 55°08' W 001°30'0 0.0
2016-Aug-26 14:31N 55°08' W 001°30'0 0.0
2016-Aug-26 13:31N 55°08' W 001°30'0 0.0
2016-Aug-26 12:31N 55°08' W 001°30'0 0.0
2016-Aug-26 11:31N 55°08' W 001°30'0 0.0
2016-Aug-26 10:31N 55°08' W 001°30'0 0.0
2016-Aug-26 09:31N 55°08' W 001°30'0 0.0
2016-Aug-26 08:33N 55°08' W 001°30'2 2.0
2016-Aug-26 07:34N 55°07' W 001°27'4 3.9
2016-Aug-26 06:34N 55°10' W 001°22'4 1.8
2016-Aug-26 04:33N 55°14' W 001°20'5 5.0
2016-Aug-26 03:34N 55°12' W 001°12'5 5.4
2016-Aug-26 02:33N 55°09' W 001°04'610.9
2016-Aug-26 02:00N 55°06' W 000°54'1 1.7 110 / 61012.1 2.2 15.015.017.2
2016-Aug-26 01:34N 55°07' W 000°55'5 5.4
2016-Aug-26 00:33N 55°04' W 000°46'6 5.0
2016-Aug-25 23:22N 55°02' W 000°36'4 4.6
2016-Aug-25 22:33N 55°01' W 000°30'10 6.4
2016-Aug-25 21:00N 54°54' W 000°18'11 4.4 130 / 31014.0 2.2 15.915.217.6
2016-Aug-25 18:27N 54°54' E 000°02'1 1.9
2016-Aug-25 18:00N 54°54' E 000°00'12 6.0 060 / 71014.6 5.4 16.215.918.2
2016-Aug-25 16:00N 54°48' E 000°18'3 5.6 060 / 61016.1 2.2 16.114.418.6
2016-Aug-25 15:30N 54°48' E 000°23'6 3.0
2016-Aug-25 13:28N 54°43' E 000°29'33 4.4
2016-Aug-25 06:00N 54°12' E 000°48'6 6.0 040 / 91018.5 2.2 15.814.917.3
2016-Aug-25 05:00N 54°06' E 000°48'10 5.8 030 / 71019.0 5.4 15.915.417.4
2016-Aug-25 03:14N 53°56' E 000°53'5 7.1
2016-Aug-25 02:29N 53°51' E 000°54'918.5
2016-Aug-25 02:00N 53°42' E 000°54'2 1.8 030 / 151017.5 2.2 0.516.015.117.3
2016-Aug-25 01:10N 53°42' E 000°57'11 6.0
2016-Aug-24 23:24N 53°32' E 000°60'5 5.4
2016-Aug-24 22:29N 53°27' E 001°04'9 6.3
2016-Aug-24 21:00N 53°18' E 001°06'15 6.0 010 / 141020.210.8 1.016.515.518.1
2016-Aug-24 18:34N 53°11' E 001°27'8 8.2
2016-Aug-24 17:33N 53°09' E 001°41'8 7.7
2016-Aug-24 16:31N 53°06' E 001°53'7 7.2
2016-Aug-24 15:34N 53°01' E 002°00'5 4.6
2016-Aug-24 14:33N 52°57' E 002°05'1 0.9
2016-Aug-24 13:33N 52°58' E 002°06'1 1.2
2016-Aug-24 12:33N 52°59' E 002°06'1 1.1
2016-Aug-24 11:33N 53°00' E 002°06'0 0.3
2016-Aug-24 10:34N 53°00' E 002°06'1 1.4
2016-Aug-24 09:34N 52°59' E 002°08'5 9.6
2016-Aug-24 09:00N 52°54' E 002°06'511.4 150 / 131019.610.8 0.520.317.620.1
2016-Aug-24 08:33N 52°57' E 002°12'5 5.1
2016-Aug-24 07:34N 52°52' E 002°16'6 6.1
2016-Aug-24 06:33N 52°47' E 002°19'11 5.6
2016-Aug-24 04:34N 52°36' E 002°19'6 9.9
2016-Aug-24 04:00N 52°30' E 002°18'1 2.6 140 / 171019.0 5.4 19.517.419.4
2016-Aug-24 03:34N 52°31' E 002°17'4 3.8
2016-Aug-24 02:34N 52°27' E 002°15'3 3.0
2016-Aug-24 01:33N 52°24' E 002°14'4 3.4
2016-Aug-24 00:13N 52°20' E 002°12'3 4.5
2016-Aug-23 23:30N 52°18' E 002°08'5 4.9
2016-Aug-23 22:26N 52°14' E 002°01'5 5.3
2016-Aug-23 21:34N 52°10' E 001°57'7 6.6
2016-Aug-23 20:34N 52°04' E 001°54'7 6.7
2016-Aug-23 19:33N 51°58' E 001°50'8 8.3
2016-Aug-23 18:33N 51°50' E 001°47'6 6.1
2016-Aug-23 17:33N 51°51' E 001°38'9 8.7
2016-Aug-23 16:33N 51°46' E 001°27'8 8.1
2016-Aug-23 15:34N 51°40' E 001°17'8 7.2
2016-Aug-23 14:29N 51°34' E 001°09'5 5.0
2016-Aug-23 13:33N 51°32' E 001°02'5 4.7
2016-Aug-23 12:33N 51°30' E 000°56'5 4.5
2016-Aug-23 11:34N 51°29' E 000°48'6 5.7
2016-Aug-23 10:34N 51°30' E 000°40'0 0.2
2016-Aug-23 09:29N 51°30' E 000°39'0 0.0
2016-Aug-23 08:32N 51°30' E 000°39'0 0.0
2016-Aug-23 07:20N 51°30' E 000°39'0 0.0
2016-Aug-23 06:32N 51°30' E 000°39'0 0.0
2016-Aug-23 05:32N 51°30' E 000°39'0 0.0
2016-Aug-23 04:32N 51°30' E 000°39'0 0.0
2016-Aug-23 03:32N 51°30' E 000°39'0 0.0
2016-Aug-23 02:32N 51°30' E 000°39'0 0.0
2016-Aug-23 01:32N 51°30' E 000°39'0 0.0
2016-Aug-23 00:32N 51°30' E 000°39'0 0.0
2016-Aug-22 23:32N 51°30' E 000°39'0 0.1
2016-Aug-22 22:32N 51°30' E 000°39'0 0.0
2016-Aug-22 21:29N 51°30' E 000°39'0 0.0
2016-Aug-22 20:32N 51°30' E 000°39'0 0.0
2016-Aug-22 19:33N 51°30' E 000°39'9 8.8
2016-Aug-22 18:34N 51°27' E 000°26'9 9.0
2016-Aug-22 17:33N 51°29' E 000°12'7 7.4
2016-Aug-22 16:33N 51°30' E 000°00'  

Dump ship's entire track history